sensor_id;sensor_type;location;lat;lon;timestamp;P1;durP1;ratioP1;P2;durP2;ratioP2
31594;SDS011;18200;48.726;8.892;2022-10-31T00:01:46;9.70;;;4.43;;
31594;SDS011;18200;48.726;8.892;2022-10-31T00:05:47;7.72;;;4.78;;
31594;SDS011;18200;48.726;8.892;2022-10-31T00:09:49;10.73;;;4.85;;
31594;SDS011;18200;48.726;8.892;2022-10-31T00:13:49;9.65;;;4.05;;
31594;SDS011;18200;48.726;8.892;2022-10-31T00:17:50;9.93;;;4.75;;
31594;SDS011;18200;48.726;8.892;2022-10-31T00:21:53;8.38;;;4.70;;
31594;SDS011;18200;48.726;8.892;2022-10-31T00:25:54;11.23;;;5.22;;
31594;SDS011;18200;48.726;8.892;2022-10-31T00:29:54;8.55;;;4.72;;
31594;SDS011;18200;48.726;8.892;2022-10-31T00:33:55;7.90;;;4.45;;
31594;SDS011;18200;48.726;8.892;2022-10-31T00:37:55;7.38;;;4.72;;
31594;SDS011;18200;48.726;8.892;2022-10-31T00:41:56;9.40;;;4.30;;
31594;SDS011;18200;48.726;8.892;2022-10-31T00:45:56;8.48;;;4.07;;
31594;SDS011;18200;48.726;8.892;2022-10-31T00:49:58;5.40;;;4.00;;
31594;SDS011;18200;48.726;8.892;2022-10-31T00:53:58;6.95;;;4.30;;
31594;SDS011;18200;48.726;8.892;2022-10-31T00:57:59;10.32;;;4.63;;
31594;SDS011;18200;48.726;8.892;2022-10-31T01:01:59;10.10;;;4.72;;
31594;SDS011;18200;48.726;8.892;2022-10-31T01:06:06;7.85;;;4.25;;
31594;SDS011;18200;48.726;8.892;2022-10-31T01:10:09;10.35;;;4.32;;
31594;SDS011;18200;48.726;8.892;2022-10-31T01:14:10;6.40;;;4.10;;
31594;SDS011;18200;48.726;8.892;2022-10-31T01:18:10;9.52;;;4.00;;
31594;SDS011;18200;48.726;8.892;2022-10-31T01:22:11;9.27;;;4.30;;
31594;SDS011;18200;48.726;8.892;2022-10-31T01:26:13;7.57;;;3.92;;
31594;SDS011;18200;48.726;8.892;2022-10-31T01:30:17;8.98;;;4.53;;
31594;SDS011;18200;48.726;8.892;2022-10-31T01:34:18;7.97;;;4.15;;
31594;SDS011;18200;48.726;8.892;2022-10-31T01:38:18;8.77;;;4.60;;
31594;SDS011;18200;48.726;8.892;2022-10-31T01:42:20;6.18;;;3.80;;
31594;SDS011;18200;48.726;8.892;2022-10-31T01:46:27;9.52;;;4.18;;
31594;SDS011;18200;48.726;8.892;2022-10-31T01:50:36;11.05;;;4.60;;
31594;SDS011;18200;48.726;8.892;2022-10-31T01:54:43;6.95;;;4.05;;
31594;SDS011;18200;48.726;8.892;2022-10-31T01:58:50;9.15;;;4.32;;
31594;SDS011;18200;48.726;8.892;2022-10-31T02:02:51;7.78;;;3.83;;
31594;SDS011;18200;48.726;8.892;2022-10-31T02:06:56;6.00;;;4.00;;
31594;SDS011;18200;48.726;8.892;2022-10-31T02:11:02;7.88;;;4.10;;
31594;SDS011;18200;48.726;8.892;2022-10-31T02:15:04;11.18;;;4.47;;
31594;SDS011;18200;48.726;8.892;2022-10-31T02:19:05;8.25;;;4.22;;
31594;SDS011;18200;48.726;8.892;2022-10-31T02:23:19;7.20;;;4.32;;
31594;SDS011;18200;48.726;8.892;2022-10-31T02:32:07;7.07;;;4.25;;
31594;SDS011;18200;48.726;8.892;2022-10-31T02:45:48;9.07;;;3.85;;
31594;SDS011;18200;48.726;8.892;2022-10-31T02:50:03;5.25;;;3.75;;
31594;SDS011;18200;48.726;8.892;2022-10-31T02:54:15;11.98;;;4.28;;
31594;SDS011;18200;48.726;8.892;2022-10-31T02:58:19;6.97;;;4.00;;
31594;SDS011;18200;48.726;8.892;2022-10-31T03:02:32;13.13;;;4.95;;
31594;SDS011;18200;48.726;8.892;2022-10-31T03:07:04;10.88;;;4.30;;
31594;SDS011;18200;48.726;8.892;2022-10-31T03:11:12;12.20;;;4.80;;
31594;SDS011;18200;48.726;8.892;2022-10-31T03:15:19;11.55;;;4.68;;
31594;SDS011;18200;48.726;8.892;2022-10-31T03:19:32;11.77;;;4.30;;
31594;SDS011;18200;48.726;8.892;2022-10-31T03:23:35;6.97;;;4.20;;
31594;SDS011;18200;48.726;8.892;2022-10-31T03:27:37;8.82;;;4.20;;
31594;SDS011;18200;48.726;8.892;2022-10-31T03:31:44;8.27;;;4.40;;
31594;SDS011;18200;48.726;8.892;2022-10-31T03:35:49;11.77;;;4.65;;
31594;SDS011;18200;48.726;8.892;2022-10-31T03:39:53;13.55;;;4.70;;
31594;SDS011;18200;48.726;8.892;2022-10-31T03:48:01;10.73;;;4.65;;
31594;SDS011;18200;48.726;8.892;2022-10-31T03:52:09;9.35;;;4.30;;
31594;SDS011;18200;48.726;8.892;2022-10-31T03:56:24;9.68;;;4.25;;
31594;SDS011;18200;48.726;8.892;2022-10-31T04:00:31;6.53;;;3.70;;
31594;SDS011;18200;48.726;8.892;2022-10-31T04:04:34;9.63;;;4.60;;
31594;SDS011;18200;48.726;8.892;2022-10-31T04:08:41;9.70;;;4.70;;
31594;SDS011;18200;48.726;8.892;2022-10-31T04:12:49;9.75;;;4.78;;
31594;SDS011;18200;48.726;8.892;2022-10-31T04:17:01;9.25;;;4.90;;
31594;SDS011;18200;48.726;8.892;2022-10-31T04:21:10;14.50;;;6.70;;
31594;SDS011;18200;48.726;8.892;2022-10-31T04:25:10;11.80;;;8.73;;
31594;SDS011;18200;48.726;8.892;2022-10-31T04:29:12;6.80;;;4.72;;
31594;SDS011;18200;48.726;8.892;2022-10-31T04:33:12;8.75;;;4.55;;
31594;SDS011;18200;48.726;8.892;2022-10-31T04:37:13;8.95;;;4.00;;
31594;SDS011;18200;48.726;8.892;2022-10-31T04:41:13;12.15;;;7.10;;
31594;SDS011;18200;48.726;8.892;2022-10-31T04:45:26;16.73;;;8.40;;
31594;SDS011;18200;48.726;8.892;2022-10-31T04:49:27;8.40;;;5.43;;
31594;SDS011;18200;48.726;8.892;2022-10-31T04:53:28;13.55;;;6.70;;
31594;SDS011;18200;48.726;8.892;2022-10-31T04:57:48;8.98;;;4.85;;
31594;SDS011;18200;48.726;8.892;2022-10-31T05:01:50;9.38;;;4.10;;
31594;SDS011;18200;48.726;8.892;2022-10-31T05:05:55;8.82;;;5.05;;
31594;SDS011;18200;48.726;8.892;2022-10-31T05:09:55;7.22;;;4.72;;
31594;SDS011;18200;48.726;8.892;2022-10-31T05:13:57;6.63;;;3.97;;
31594;SDS011;18200;48.726;8.892;2022-10-31T05:18:16;9.35;;;4.28;;
31594;SDS011;18200;48.726;8.892;2022-10-31T05:22:35;9.52;;;4.30;;
31594;SDS011;18200;48.726;8.892;2022-10-31T05:26:35;8.25;;;4.72;;
31594;SDS011;18200;48.726;8.892;2022-10-31T05:30:36;11.68;;;5.35;;
31594;SDS011;18200;48.726;8.892;2022-10-31T05:34:37;9.57;;;5.10;;
31594;SDS011;18200;48.726;8.892;2022-10-31T05:39:11;9.65;;;4.35;;
31594;SDS011;18200;48.726;8.892;2022-10-31T05:43:17;8.25;;;4.45;;
31594;SDS011;18200;48.726;8.892;2022-10-31T05:47:17;8.80;;;4.45;;
31594;SDS011;18200;48.726;8.892;2022-10-31T05:51:36;8.10;;;4.05;;
31594;SDS011;18200;48.726;8.892;2022-10-31T05:55:37;9.00;;;4.40;;
31594;SDS011;18200;48.726;8.892;2022-10-31T05:59:58;9.35;;;4.50;;
31594;SDS011;18200;48.726;8.892;2022-10-31T06:03:59;9.98;;;4.47;;
31594;SDS011;18200;48.726;8.892;2022-10-31T06:08:00;6.93;;;4.30;;
31594;SDS011;18200;48.726;8.892;2022-10-31T06:12:00;13.90;;;6.68;;
31594;SDS011;18200;48.726;8.892;2022-10-31T06:16:39;13.18;;;6.80;;
31594;SDS011;18200;48.726;8.892;2022-10-31T06:21:02;7.35;;;4.70;;
31594;SDS011;18200;48.726;8.892;2022-10-31T06:25:02;10.18;;;4.70;;
31594;SDS011;18200;48.726;8.892;2022-10-31T06:29:07;11.43;;;4.13;;
31594;SDS011;18200;48.726;8.892;2022-10-31T06:33:31;8.27;;;4.10;;
31594;SDS011;18200;48.726;8.892;2022-10-31T06:37:34;9.43;;;4.43;;
31594;SDS011;18200;48.726;8.892;2022-10-31T06:41:49;8.40;;;4.38;;
31594;SDS011;18200;48.726;8.892;2022-10-31T06:45:53;11.95;;;4.60;;
31594;SDS011;18200;48.726;8.892;2022-10-31T06:50:08;8.27;;;4.32;;
31594;SDS011;18200;48.726;8.892;2022-10-31T06:54:08;15.23;;;6.00;;
31594;SDS011;18200;48.726;8.892;2022-10-31T06:58:10;8.88;;;4.75;;
31594;SDS011;18200;48.726;8.892;2022-10-31T07:02:13;10.23;;;4.90;;
31594;SDS011;18200;48.726;8.892;2022-10-31T07:06:17;29.30;;;13.97;;
31594;SDS011;18200;48.726;8.892;2022-10-31T07:10:17;18.45;;;8.55;;
31594;SDS011;18200;48.726;8.892;2022-10-31T07:14:25;13.77;;;5.38;;
31594;SDS011;18200;48.726;8.892;2022-10-31T07:18:27;6.00;;;4.45;;
31594;SDS011;18200;48.726;8.892;2022-10-31T07:22:34;9.23;;;4.90;;
31594;SDS011;18200;48.726;8.892;2022-10-31T07:26:38;8.25;;;5.18;;
31594;SDS011;18200;48.726;8.892;2022-10-31T07:30:38;10.27;;;5.28;;
31594;SDS011;18200;48.726;8.892;2022-10-31T07:34:39;9.73;;;5.28;;
31594;SDS011;18200;48.726;8.892;2022-10-31T07:38:55;10.55;;;5.18;;
31594;SDS011;18200;48.726;8.892;2022-10-31T07:42:57;13.05;;;5.63;;
31594;SDS011;18200;48.726;8.892;2022-10-31T07:47:24;10.20;;;4.90;;
31594;SDS011;18200;48.726;8.892;2022-10-31T07:51:43;14.02;;;5.80;;
31594;SDS011;18200;48.726;8.892;2022-10-31T07:56:19;14.85;;;5.13;;
31594;SDS011;18200;48.726;8.892;2022-10-31T08:00:20;15.45;;;5.25;;
31594;SDS011;18200;48.726;8.892;2022-10-31T08:04:23;11.90;;;5.10;;
31594;SDS011;18200;48.726;8.892;2022-10-31T08:08:42;12.10;;;4.85;;
31594;SDS011;18200;48.726;8.892;2022-10-31T08:12:43;10.90;;;5.03;;
31594;SDS011;18200;48.726;8.892;2022-10-31T08:16:44;15.70;;;6.03;;
31594;SDS011;18200;48.726;8.892;2022-10-31T08:20:46;19.38;;;6.85;;
31594;SDS011;18200;48.726;8.892;2022-10-31T08:24:46;10.80;;;5.75;;
31594;SDS011;18200;48.726;8.892;2022-10-31T08:28:47;12.43;;;5.93;;
31594;SDS011;18200;48.726;8.892;2022-10-31T08:32:56;10.02;;;5.95;;
31594;SDS011;18200;48.726;8.892;2022-10-31T08:37:24;15.70;;;5.35;;
31594;SDS011;18200;48.726;8.892;2022-10-31T08:41:27;14.23;;;5.80;;
31594;SDS011;18200;48.726;8.892;2022-10-31T08:45:28;10.27;;;4.75;;
31594;SDS011;18200;48.726;8.892;2022-10-31T08:49:31;12.23;;;5.28;;
31594;SDS011;18200;48.726;8.892;2022-10-31T08:53:31;13.70;;;5.15;;
31594;SDS011;18200;48.726;8.892;2022-10-31T08:58:05;13.23;;;4.78;;
31594;SDS011;18200;48.726;8.892;2022-10-31T09:02:19;10.30;;;5.38;;
31594;SDS011;18200;48.726;8.892;2022-10-31T09:06:22;13.70;;;5.45;;
31594;SDS011;18200;48.726;8.892;2022-10-31T09:10:23;13.07;;;5.47;;
31594;SDS011;18200;48.726;8.892;2022-10-31T09:14:25;14.07;;;5.35;;
31594;SDS011;18200;48.726;8.892;2022-10-31T09:19:04;10.65;;;5.15;;
31594;SDS011;18200;48.726;8.892;2022-10-31T09:23:05;16.98;;;5.75;;
31594;SDS011;18200;48.726;8.892;2022-10-31T09:27:21;16.77;;;5.50;;
31594;SDS011;18200;48.726;8.892;2022-10-31T09:31:22;10.95;;;5.55;;
31594;SDS011;18200;48.726;8.892;2022-10-31T09:35:32;15.10;;;5.55;;
31594;SDS011;18200;48.726;8.892;2022-10-31T09:39:33;9.63;;;5.38;;
31594;SDS011;18200;48.726;8.892;2022-10-31T09:43:50;15.82;;;5.80;;
31594;SDS011;18200;48.726;8.892;2022-10-31T09:52:47;14.10;;;5.40;;
31594;SDS011;18200;48.726;8.892;2022-10-31T09:56:57;14.07;;;5.18;;
31594;SDS011;18200;48.726;8.892;2022-10-31T10:01:00;16.88;;;5.03;;
31594;SDS011;18200;48.726;8.892;2022-10-31T10:05:11;16.03;;;5.17;;
31594;SDS011;18200;48.726;8.892;2022-10-31T10:09:20;21.30;;;11.88;;
31594;SDS011;18200;48.726;8.892;2022-10-31T10:26:37;18.52;;;6.10;;
31594;SDS011;18200;48.726;8.892;2022-10-31T10:30:42;19.40;;;5.95;;
31594;SDS011;18200;48.726;8.892;2022-10-31T10:34:48;13.60;;;5.47;;
31594;SDS011;18200;48.726;8.892;2022-10-31T10:38:57;14.00;;;5.38;;
31594;SDS011;18200;48.726;8.892;2022-10-31T10:43:19;21.02;;;6.20;;
31594;SDS011;18200;48.726;8.892;2022-10-31T10:47:22;12.65;;;5.85;;
31594;SDS011;18200;48.726;8.892;2022-10-31T10:51:40;12.77;;;6.07;;
31594;SDS011;18200;48.726;8.892;2022-10-31T10:55:48;17.63;;;5.43;;
31594;SDS011;18200;48.726;8.892;2022-10-31T10:59:53;12.40;;;5.97;;
31594;SDS011;18200;48.726;8.892;2022-10-31T11:03:54;13.30;;;6.22;;
31594;SDS011;18200;48.726;8.892;2022-10-31T11:07:54;15.82;;;6.07;;
31594;SDS011;18200;48.726;8.892;2022-10-31T11:11:55;17.13;;;6.50;;
31594;SDS011;18200;48.726;8.892;2022-10-31T11:24:14;21.42;;;6.80;;
31594;SDS011;18200;48.726;8.892;2022-10-31T11:28:17;17.27;;;6.83;;
31594;SDS011;18200;48.726;8.892;2022-10-31T11:32:21;19.40;;;6.70;;
31594;SDS011;18200;48.726;8.892;2022-10-31T11:36:27;16.02;;;6.22;;
31594;SDS011;18200;48.726;8.892;2022-10-31T11:44:30;18.85;;;6.80;;
31594;SDS011;18200;48.726;8.892;2022-10-31T11:48:32;15.32;;;6.38;;
31594;SDS011;18200;48.726;8.892;2022-10-31T11:52:33;18.35;;;6.55;;
31594;SDS011;18200;48.726;8.892;2022-10-31T11:56:40;12.70;;;6.05;;
31594;SDS011;18200;48.726;8.892;2022-10-31T12:00:48;12.35;;;5.63;;
31594;SDS011;18200;48.726;8.892;2022-10-31T12:09:24;15.27;;;5.68;;
31594;SDS011;18200;48.726;8.892;2022-10-31T12:13:34;14.07;;;5.70;;
31594;SDS011;18200;48.726;8.892;2022-10-31T12:43:16;11.40;;;4.50;;
31594;SDS011;18200;48.726;8.892;2022-10-31T12:47:46;11.05;;;4.63;;
31594;SDS011;18200;48.726;8.892;2022-10-31T13:00:18;10.23;;;5.00;;
31594;SDS011;18200;48.726;8.892;2022-10-31T13:08:46;12.60;;;5.35;;
31594;SDS011;18200;48.726;8.892;2022-10-31T13:12:54;16.17;;;4.90;;
31594;SDS011;18200;48.726;8.892;2022-10-31T13:17:00;15.27;;;4.97;;
31594;SDS011;18200;48.726;8.892;2022-10-31T13:21:03;12.73;;;5.55;;
31594;SDS011;18200;48.726;8.892;2022-10-31T13:29:25;15.00;;;4.68;;
31594;SDS011;18200;48.726;8.892;2022-10-31T13:33:41;10.27;;;4.70;;
31594;SDS011;18200;48.726;8.892;2022-10-31T13:37:50;17.08;;;6.35;;
31594;SDS011;18200;48.726;8.892;2022-10-31T13:46:34;21.85;;;6.15;;
31594;SDS011;18200;48.726;8.892;2022-10-31T13:50:42;58.15;;;10.25;;
31594;SDS011;18200;48.726;8.892;2022-10-31T13:58:55;12.10;;;5.03;;
31594;SDS011;18200;48.726;8.892;2022-10-31T14:03:18;11.57;;;4.30;;
31594;SDS011;18200;48.726;8.892;2022-10-31T14:07:20;17.42;;;4.82;;
31594;SDS011;18200;48.726;8.892;2022-10-31T14:11:24;13.25;;;4.97;;
31594;SDS011;18200;48.726;8.892;2022-10-31T14:15:27;13.43;;;5.03;;
31594;SDS011;18200;48.726;8.892;2022-10-31T14:19:28;11.40;;;4.80;;
31594;SDS011;18200;48.726;8.892;2022-10-31T14:27:44;13.38;;;4.15;;
31594;SDS011;18200;48.726;8.892;2022-10-31T14:31:57;15.73;;;4.95;;
31594;SDS011;18200;48.726;8.892;2022-10-31T14:36:09;11.35;;;4.07;;
31594;SDS011;18200;48.726;8.892;2022-10-31T14:40:35;16.35;;;4.45;;
31594;SDS011;18200;48.726;8.892;2022-10-31T14:44:50;16.48;;;4.55;;
31594;SDS011;18200;48.726;8.892;2022-10-31T14:57:37;23.70;;;12.13;;
31594;SDS011;18200;48.726;8.892;2022-10-31T15:01:48;36.97;;;19.90;;
31594;SDS011;18200;48.726;8.892;2022-10-31T15:05:56;18.40;;;10.88;;
31594;SDS011;18200;48.726;8.892;2022-10-31T15:14:37;9.23;;;4.57;;
31594;SDS011;18200;48.726;8.892;2022-10-31T15:18:38;12.52;;;4.10;;
31594;SDS011;18200;48.726;8.892;2022-10-31T15:22:46;12.07;;;4.50;;
31594;SDS011;18200;48.726;8.892;2022-10-31T15:26:48;12.70;;;4.90;;
31594;SDS011;18200;48.726;8.892;2022-10-31T15:30:52;14.07;;;4.40;;
31594;SDS011;18200;48.726;8.892;2022-10-31T15:34:57;12.00;;;4.20;;
31594;SDS011;18200;48.726;8.892;2022-10-31T15:38:57;11.98;;;6.03;;
31594;SDS011;18200;48.726;8.892;2022-10-31T15:42:59;18.27;;;5.93;;
31594;SDS011;18200;48.726;8.892;2022-10-31T15:47:18;19.83;;;9.27;;
31594;SDS011;18200;48.726;8.892;2022-10-31T15:51:25;21.42;;;14.48;;
31594;SDS011;18200;48.726;8.892;2022-10-31T15:55:28;14.23;;;5.85;;
31594;SDS011;18200;48.726;8.892;2022-10-31T15:59:32;15.82;;;5.93;;
31594;SDS011;18200;48.726;8.892;2022-10-31T16:03:33;19.15;;;7.20;;
31594;SDS011;18200;48.726;8.892;2022-10-31T16:07:33;23.38;;;6.45;;
31594;SDS011;18200;48.726;8.892;2022-10-31T16:15:36;14.65;;;7.20;;
31594;SDS011;18200;48.726;8.892;2022-10-31T16:19:37;16.88;;;7.75;;
31594;SDS011;18200;48.726;8.892;2022-10-31T16:23:47;19.75;;;11.52;;
31594;SDS011;18200;48.726;8.892;2022-10-31T16:27:54;21.67;;;12.10;;
31594;SDS011;18200;48.726;8.892;2022-10-31T16:32:01;17.38;;;8.43;;
31594;SDS011;18200;48.726;8.892;2022-10-31T16:40:27;15.55;;;8.05;;
31594;SDS011;18200;48.726;8.892;2022-10-31T16:44:28;17.23;;;8.25;;
31594;SDS011;18200;48.726;8.892;2022-10-31T16:48:28;11.05;;;5.72;;
31594;SDS011;18200;48.726;8.892;2022-10-31T16:52:29;15.13;;;6.18;;
31594;SDS011;18200;48.726;8.892;2022-10-31T16:56:30;20.27;;;6.10;;
31594;SDS011;18200;48.726;8.892;2022-10-31T17:00:32;17.55;;;5.97;;
31594;SDS011;18200;48.726;8.892;2022-10-31T17:04:32;12.45;;;6.70;;
31594;SDS011;18200;48.726;8.892;2022-10-31T17:08:32;13.63;;;6.43;;
31594;SDS011;18200;48.726;8.892;2022-10-31T17:12:33;21.73;;;7.97;;
31594;SDS011;18200;48.726;8.892;2022-10-31T17:16:34;16.75;;;9.63;;
31594;SDS011;18200;48.726;8.892;2022-10-31T17:20:36;25.35;;;11.60;;
31594;SDS011;18200;48.726;8.892;2022-10-31T17:24:36;17.95;;;9.25;;
31594;SDS011;18200;48.726;8.892;2022-10-31T17:28:36;14.88;;;7.55;;
31594;SDS011;18200;48.726;8.892;2022-10-31T17:32:37;13.65;;;7.90;;
31594;SDS011;18200;48.726;8.892;2022-10-31T17:36:37;14.23;;;8.57;;
31594;SDS011;18200;48.726;8.892;2022-10-31T17:40:38;17.33;;;9.25;;
31594;SDS011;18200;48.726;8.892;2022-10-31T17:44:41;18.35;;;8.68;;
31594;SDS011;18200;48.726;8.892;2022-10-31T17:48:41;19.50;;;8.70;;
31594;SDS011;18200;48.726;8.892;2022-10-31T17:52:41;17.80;;;7.90;;
31594;SDS011;18200;48.726;8.892;2022-10-31T17:56:42;16.50;;;8.32;;
31594;SDS011;18200;48.726;8.892;2022-10-31T18:00:42;17.95;;;9.85;;
31594;SDS011;18200;48.726;8.892;2022-10-31T18:04:42;23.45;;;8.10;;
31594;SDS011;18200;48.726;8.892;2022-10-31T18:08:43;19.80;;;8.50;;
31594;SDS011;18200;48.726;8.892;2022-10-31T18:12:43;22.98;;;10.90;;
31594;SDS011;18200;48.726;8.892;2022-10-31T18:16:44;21.33;;;9.50;;
31594;SDS011;18200;48.726;8.892;2022-10-31T18:20:44;19.63;;;7.55;;
31594;SDS011;18200;48.726;8.892;2022-10-31T18:24:45;19.98;;;7.82;;
31594;SDS011;18200;48.726;8.892;2022-10-31T18:28:45;17.60;;;8.32;;
31594;SDS011;18200;48.726;8.892;2022-10-31T18:32:48;20.88;;;9.90;;
31594;SDS011;18200;48.726;8.892;2022-10-31T18:36:50;21.73;;;13.15;;
31594;SDS011;18200;48.726;8.892;2022-10-31T18:40:50;27.02;;;11.00;;
31594;SDS011;18200;48.726;8.892;2022-10-31T18:44:51;17.73;;;9.02;;
31594;SDS011;18200;48.726;8.892;2022-10-31T18:48:51;20.10;;;10.13;;
31594;SDS011;18200;48.726;8.892;2022-10-31T18:52:52;30.48;;;10.73;;
31594;SDS011;18200;48.726;8.892;2022-10-31T18:56:52;21.92;;;10.30;;
31594;SDS011;18200;48.726;8.892;2022-10-31T19:00:53;20.42;;;10.65;;
31594;SDS011;18200;48.726;8.892;2022-10-31T19:04:54;22.33;;;9.93;;
31594;SDS011;18200;48.726;8.892;2022-10-31T19:08:55;20.63;;;11.75;;
31594;SDS011;18200;48.726;8.892;2022-10-31T19:12:57;23.70;;;11.75;;
31594;SDS011;18200;48.726;8.892;2022-10-31T19:16:58;22.77;;;11.73;;
31594;SDS011;18200;48.726;8.892;2022-10-31T19:20:58;23.73;;;11.35;;
31594;SDS011;18200;48.726;8.892;2022-10-31T19:24:58;23.20;;;12.85;;
31594;SDS011;18200;48.726;8.892;2022-10-31T19:28:59;22.67;;;11.85;;
31594;SDS011;18200;48.726;8.892;2022-10-31T19:32:59;22.05;;;12.18;;
31594;SDS011;18200;48.726;8.892;2022-10-31T19:37:00;25.90;;;11.63;;
31594;SDS011;18200;48.726;8.892;2022-10-31T19:41:01;31.77;;;12.38;;
31594;SDS011;18200;48.726;8.892;2022-10-31T19:45:04;21.02;;;10.30;;
31594;SDS011;18200;48.726;8.892;2022-10-31T19:49:05;25.23;;;13.48;;
31594;SDS011;18200;48.726;8.892;2022-10-31T19:53:05;29.83;;;12.70;;
31594;SDS011;18200;48.726;8.892;2022-10-31T19:57:06;24.50;;;11.70;;
31594;SDS011;18200;48.726;8.892;2022-10-31T20:01:07;21.25;;;12.57;;
31594;SDS011;18200;48.726;8.892;2022-10-31T20:05:09;20.25;;;11.40;;
31594;SDS011;18200;48.726;8.892;2022-10-31T20:09:10;22.15;;;11.70;;
31594;SDS011;18200;48.726;8.892;2022-10-31T20:13:12;25.73;;;12.20;;
31594;SDS011;18200;48.726;8.892;2022-10-31T20:17:14;22.30;;;12.25;;
31594;SDS011;18200;48.726;8.892;2022-10-31T20:21:15;26.52;;;13.10;;
31594;SDS011;18200;48.726;8.892;2022-10-31T20:25:19;35.13;;;17.95;;
31594;SDS011;18200;48.726;8.892;2022-10-31T20:29:19;28.92;;;17.40;;
31594;SDS011;18200;48.726;8.892;2022-10-31T20:33:19;26.20;;;13.20;;
31594;SDS011;18200;48.726;8.892;2022-10-31T20:37:20;22.08;;;12.48;;
31594;SDS011;18200;48.726;8.892;2022-10-31T20:41:20;24.70;;;12.00;;
31594;SDS011;18200;48.726;8.892;2022-10-31T20:45:21;20.50;;;11.70;;
31594;SDS011;18200;48.726;8.892;2022-10-31T20:49:21;24.60;;;11.85;;
31594;SDS011;18200;48.726;8.892;2022-10-31T20:53:21;33.17;;;14.95;;
31594;SDS011;18200;48.726;8.892;2022-10-31T20:57:22;28.17;;;16.70;;
31594;SDS011;18200;48.726;8.892;2022-10-31T21:01:24;24.85;;;12.73;;
31594;SDS011;18200;48.726;8.892;2022-10-31T21:05:28;27.42;;;12.27;;
31594;SDS011;18200;48.726;8.892;2022-10-31T21:09:29;25.27;;;11.70;;
31594;SDS011;18200;48.726;8.892;2022-10-31T21:13:29;23.77;;;10.95;;
31594;SDS011;18200;48.726;8.892;2022-10-31T21:17:30;22.65;;;11.27;;
31594;SDS011;18200;48.726;8.892;2022-10-31T21:21:32;22.38;;;12.07;;
31594;SDS011;18200;48.726;8.892;2022-10-31T21:25:35;25.48;;;11.93;;
31594;SDS011;18200;48.726;8.892;2022-10-31T21:29:38;23.50;;;12.07;;
31594;SDS011;18200;48.726;8.892;2022-10-31T21:33:38;20.25;;;11.02;;
31594;SDS011;18200;48.726;8.892;2022-10-31T21:37:39;23.58;;;11.57;;
31594;SDS011;18200;48.726;8.892;2022-10-31T21:41:40;24.85;;;11.32;;
31594;SDS011;18200;48.726;8.892;2022-10-31T21:45:40;20.83;;;11.30;;
31594;SDS011;18200;48.726;8.892;2022-10-31T21:49:40;20.65;;;11.57;;
31594;SDS011;18200;48.726;8.892;2022-10-31T21:53:41;21.15;;;11.55;;
31594;SDS011;18200;48.726;8.892;2022-10-31T21:58:01;23.88;;;13.43;;
31594;SDS011;18200;48.726;8.892;2022-10-31T22:02:01;26.73;;;15.05;;
31594;SDS011;18200;48.726;8.892;2022-10-31T22:06:02;24.98;;;14.27;;
31594;SDS011;18200;48.726;8.892;2022-10-31T22:10:04;24.13;;;13.82;;
31594;SDS011;18200;48.726;8.892;2022-10-31T22:14:05;24.80;;;12.55;;
31594;SDS011;18200;48.726;8.892;2022-10-31T22:18:05;24.05;;;13.15;;
31594;SDS011;18200;48.726;8.892;2022-10-31T22:22:06;29.05;;;15.05;;
31594;SDS011;18200;48.726;8.892;2022-10-31T22:26:07;25.73;;;15.20;;
31594;SDS011;18200;48.726;8.892;2022-10-31T22:30:13;34.78;;;16.90;;
31594;SDS011;18200;48.726;8.892;2022-10-31T22:34:14;63.60;;;28.20;;
31594;SDS011;18200;48.726;8.892;2022-10-31T22:38:16;25.92;;;13.25;;
31594;SDS011;18200;48.726;8.892;2022-10-31T22:42:16;27.45;;;12.07;;
31594;SDS011;18200;48.726;8.892;2022-10-31T22:46:18;24.95;;;13.00;;
31594;SDS011;18200;48.726;8.892;2022-10-31T22:50:20;30.48;;;16.33;;
31594;SDS011;18200;48.726;8.892;2022-10-31T22:54:20;25.17;;;13.32;;
31594;SDS011;18200;48.726;8.892;2022-10-31T22:58:21;26.23;;;13.48;;
31594;SDS011;18200;48.726;8.892;2022-10-31T23:02:21;26.42;;;13.75;;
31594;SDS011;18200;48.726;8.892;2022-10-31T23:06:22;23.10;;;13.88;;
31594;SDS011;18200;48.726;8.892;2022-10-31T23:10:24;21.75;;;13.38;;
31594;SDS011;18200;48.726;8.892;2022-10-31T23:14:32;29.08;;;14.70;;
31594;SDS011;18200;48.726;8.892;2022-10-31T23:18:33;25.38;;;14.15;;
31594;SDS011;18200;48.726;8.892;2022-10-31T23:22:34;25.60;;;13.25;;
31594;SDS011;18200;48.726;8.892;2022-10-31T23:26:34;22.88;;;12.90;;
31594;SDS011;18200;48.726;8.892;2022-10-31T23:30:53;26.05;;;13.57;;
31594;SDS011;18200;48.726;8.892;2022-10-31T23:34:54;21.85;;;13.10;;
31594;SDS011;18200;48.726;8.892;2022-10-31T23:38:57;23.63;;;13.50;;
31594;SDS011;18200;48.726;8.892;2022-10-31T23:42:57;22.98;;;13.00;;
31594;SDS011;18200;48.726;8.892;2022-10-31T23:46:57;23.00;;;12.75;;
31594;SDS011;18200;48.726;8.892;2022-10-31T23:50:59;19.70;;;11.90;;
31594;SDS011;18200;48.726;8.892;2022-10-31T23:54:59;21.02;;;11.45;;
31594;SDS011;18200;48.726;8.892;2022-10-31T23:59:00;22.60;;;11.35;;
